Time;durP1;ratioP1;P1;durP2;ratioP2;P2;SDS_P1;SDS_P2;PMS_P1;PMS_P2;Temp;Humidity;BMP_temperature;BMP_pressure;BME280_temperature;BME280_humidity;BME280_pressure;Samples;Min_cycle;Max_cycle;Signal;HPM_P1;HPM_P2
2022/09/27 00:00:23;;;;;;;;;1.33;0.67;;;;;15.58;68.40;73268.63;4989837;27;46507;-76
2022/09/27 00:02:49;;;;;;;;;1.33;0.00;;;;;15.70;67.66;73490.72;4974523;28;45479;-76
2022/09/27 00:05:15;;;;;;;;;0.67;0.67;;;;;15.60;67.57;73297.84;4993137;28;45463;-76
2022/09/27 00:07:40;;;;;;;;;0.67;0.67;;;;;15.61;67.68;74043.03;4993502;28;45364;-76
2022/09/27 00:10:07;;;;;;;;;2.00;0.33;;;;;15.57;67.22;72890.53;4986275;28;47154;-76
2022/09/27 00:12:33;;;;;;;;;2.00;1.67;;;;;15.65;67.37;74413.22;4991547;28;45776;-76
2022/09/27 00:14:59;;;;;;;;;1.67;1.33;;;;;15.57;67.04;74326.84;4991758;28;46410;-76
2022/09/27 00:17:26;;;;;;;;;0.67;0.67;;;;;15.55;67.38;74758.69;4992676;27;45677;-76
2022/09/27 00:19:51;;;;;;;;;1.67;1.00;;;;;15.52;67.74;74819.50;4976026;28;48699;-76
2022/09/27 00:22:17;;;;;;;;;1.33;0.67;;;;;15.59;67.56;75324.44;4956647;28;45528;-76
2022/09/27 00:24:42;;;;;;;;;1.00;1.00;;;;;15.56;67.60;75313.16;4976403;28;45440;-76
2022/09/27 00:27:08;;;;;;;;;2.00;1.00;;;;;15.42;67.70;75367.06;4990558;28;45558;-76
2022/09/27 00:29:33;;;;;;;;;0.67;0.67;;;;;15.56;68.13;75147.66;4975951;28;46293;-76
2022/09/27 00:31:59;;;;;;;;;0.67;0.67;;;;;15.66;67.96;74983.75;4974087;28;45770;-76
2022/09/27 00:34:25;;;;;;;;;0.67;0.67;;;;;15.65;67.96;74947.13;4991153;28;45234;-76
2022/09/27 00:36:51;;;;;;;;;1.67;0.67;;;;;15.67;68.44;74854.25;4975486;28;45531;-76
2022/09/27 00:39:17;;;;;;;;;2.00;1.33;;;;;15.66;68.51;74798.91;4991836;28;45395;-76
2022/09/27 00:41:44;;;;;;;;;0.67;0.00;;;;;15.65;68.60;74822.28;4995872;28;45176;-76
2022/09/27 00:44:28;;;;;;;;;0.67;0.67;;;;;15.61;68.73;74278.56;4975770;28;45638;-76
2022/09/27 00:47:18;;;;;;;;;1.33;0.33;;;;;15.61;69.03;74097.06;4992595;28;45619;-73
2022/09/27 00:49:46;;;;;;;;;3.33;1.67;;;;;15.60;69.13;73630.78;4986407;28;46312;-73
2022/09/27 00:52:24;;;;;;;;;2.33;1.00;;;;;15.56;69.21;73911.88;4991194;28;45504;-73
2022/09/27 00:54:59;;;;;;;;;1.67;1.67;;;;;15.40;68.85;73139.81;4986264;28;45307;-73
2022/09/27 00:57:24;;;;;;;;;5.00;2.00;;;;;15.50;69.37;73407.28;4991200;28;45650;-73
2022/09/27 01:00:14;;;;;;;;;3.67;1.67;;;;;15.52;69.19;72876.22;4989388;28;46537;-73
2022/09/27 01:02:43;;;;;;;;;3.00;0.33;;;;;15.50;69.34;72777.66;4985042;27;45927;-73
2022/09/27 01:05:11;;;;;;;;;3.67;1.67;;;;;15.50;69.36;72628.94;4991210;28;45509;-73
2022/09/27 01:07:37;;;;;;;;;0.67;0.67;;;;;15.51;69.02;72630.16;4993627;28;46090;-73
2022/09/27 01:10:04;;;;;;;;;1.33;0.67;;;;;15.53;69.20;72541.38;4992406;27;45933;-74
2022/09/27 01:12:42;;;;;;;;;1.33;1.33;;;;;15.45;69.07;72531.94;4992678;28;45805;-73
2022/09/27 01:15:17;;;;;;;;;2.67;1.67;;;;;15.50;69.13;72271.50;4993211;28;45378;-73
2022/09/27 01:18:14;;;;;;;;;1.33;1.33;;;;;15.46;69.32;72724.66;4974200;28;45663;-73
2022/09/27 01:21:21;;;;;;;;;0.67;0.33;;;;;15.45;69.57;72381.97;4988900;28;45615;-73
2022/09/27 01:24:14;;;;;;;;;0.00;0.00;;;;;15.47;69.51;71942.34;4992262;28;45362;-73
2022/09/27 01:27:03;;;;;;;;;0.33;0.33;;;;;15.49;69.22;72213.59;4991510;28;45628;-73
2022/09/27 01:30:07;;;;;;;;;2.00;0.67;;;;;15.45;69.32;72432.66;4978058;28;45305;-73
2022/09/27 01:32:58;;;;;;;;;1.00;0.67;;;;;15.43;69.21;72084.06;4930568;28;46242;-73
2022/09/27 01:35:35;;;;;;;;;1.00;0.67;;;;;15.39;69.55;71860.41;4931469;28;45729;-73
2022/09/27 01:38:12;;;;;;;;;4.00;1.33;;;;;15.36;69.47;71862.03;4929751;28;45763;-73
2022/09/27 01:40:53;;;;;;;;;3.00;1.67;;;;;15.35;69.72;71872.06;4931386;28;45459;-73
2022/09/27 01:43:45;;;;;;;;;2.67;1.00;;;;;15.29;69.68;71733.34;4922704;28;47779;-73
2022/09/27 01:46:17;;;;;;;;;1.67;0.67;;;;;15.28;69.47;71498.13;4928913;28;45458;-73
2022/09/27 01:48:47;;;;;;;;;0.33;0.33;;;;;15.30;69.68;71657.91;4925321;28;45727;-73
2022/09/27 01:51:21;;;;;;;;;0.67;0.67;;;;;15.18;69.40;71846.25;4931727;28;45288;-73
2022/09/27 01:53:51;;;;;;;;;0.67;0.67;;;;;15.26;69.56;71301.06;4932758;28;47321;-73
2022/09/27 01:56:23;;;;;;;;;1.33;1.33;;;;;15.27;69.55;71233.00;4929494;28;45687;-73
2022/09/27 01:58:55;;;;;;;;;1.00;0.33;;;;;15.23;69.63;71582.59;4930205;28;45631;-73
2022/09/27 02:01:24;;;;;;;;;1.00;0.33;;;;;15.18;69.38;71235.25;4931101;28;45500;-73
2022/09/27 02:03:52;;;;;;;;;0.33;0.33;;;;;15.21;69.75;71305.56;4932085;28;47396;-73
2022/09/27 02:06:27;;;;;;;;;1.00;1.00;;;;;15.23;69.62;71379.38;4929263;28;47245;-73
2022/09/27 02:08:58;;;;;;;;;1.33;0.33;;;;;15.22;69.67;71372.81;4941901;28;45561;-73
2022/09/27 02:11:23;;;;;;;;;2.00;0.67;;;;;15.02;69.50;71447.38;4991616;28;45639;-73
2022/09/27 02:13:55;;;;;;;;;1.00;1.00;;;;;15.13;69.44;71552.19;4990481;28;46089;-72
2022/09/27 02:16:39;;;;;;;;;2.00;1.00;;;;;15.17;69.34;71361.94;4991208;28;45274;-73
2022/09/27 02:19:28;;;;;;;;;0.00;0.00;;;;;15.18;69.57;71571.09;4988669;27;45221;-73
2022/09/27 02:22:15;;;;;;;;;2.00;1.00;;;;;15.17;69.34;71615.16;4971233;28;45402;-73
2022/09/27 02:24:52;;;;;;;;;0.67;0.67;;;;;15.18;69.30;71979.53;4989200;28;45499;-73
2022/09/27 02:27:28;;;;;;;;;4.00;0.00;;;;;15.15;69.33;71687.31;4987290;28;45380;-73
2022/09/27 02:30:08;;;;;;;;;0.67;0.67;;;;;15.18;69.39;72010.91;4989823;27;45366;-73
2022/09/27 02:32:34;;;;;;;;;1.33;0.00;;;;;15.15;69.34;71658.63;4988819;28;45422;-73
2022/09/27 02:35:06;;;;;;;;;2.00;0.33;;;;;15.11;69.13;71642.38;4975850;28;45537;-73
2022/09/27 02:37:33;;;;;;;;;1.33;0.00;;;;;15.17;69.37;71916.34;5045600;28;45362;-72
2022/09/27 02:39:59;;;;;;;;;0.67;0.00;;;;;15.19;69.23;71718.91;4992910;28;45449;-73
2022/09/27 02:42:26;;;;;;;;;1.00;1.00;;;;;15.18;69.43;71651.03;4988676;28;45583;-73
2022/09/27 02:44:52;;;;;;;;;0.00;0.00;;;;;15.19;69.37;71634.25;4992051;28;46127;-73
2022/09/27 02:47:38;;;;;;;;;0.00;0.00;;;;;15.21;69.39;71510.81;4988985;28;45664;-73
2022/09/27 02:50:24;;;;;;;;;2.00;0.33;;;;;15.24;69.58;71373.25;4987278;28;45553;-73
2022/09/27 02:53:07;;;;;;;;;0.00;0.00;;;;;15.26;69.71;71309.06;4989777;28;45278;-72
2022/09/27 02:55:56;;;;;;;;;1.00;1.00;;;;;15.27;69.69;71046.41;4973641;28;48316;-73
2022/09/27 02:58:37;;;;;;;;;0.67;0.00;;;;;15.23;69.82;70913.56;4979516;28;45374;-73
2022/09/27 03:01:06;;;;;;;;;0.67;0.00;;;;;15.24;70.23;70644.97;4995376;28;45516;-73
2022/09/27 03:03:31;;;;;;;;;2.00;1.00;;;;;15.25;70.08;70145.78;5000238;28;45614;-72
2022/09/27 03:06:04;;;;;;;;;0.00;0.00;;;;;15.27;69.80;70118.91;4998558;28;45618;-73
2022/09/27 03:08:29;;;;;;;;;2.00;0.00;;;;;15.29;70.04;69820.22;4978852;28;45747;-73
2022/09/27 03:10:55;;;;;;;;;0.00;0.00;;;;;15.29;70.15;69790.28;4996992;27;45393;-73
2022/09/27 03:13:20;;;;;;;;;2.67;0.00;;;;;15.31;71.28;69041.28;4996995;28;46850;-73
2022/09/27 03:15:45;;;;;;;;;4.33;0.67;;;;;15.33;71.88;68540.72;4996113;28;46506;-73
2022/09/27 03:18:11;;;;;;;;;0.00;0.00;;;;;15.33;72.67;67613.13;4997662;28;45352;-73
2022/09/27 03:20:36;;;;;;;;;0.00;0.00;;;;;15.34;73.42;67068.31;4997700;27;45934;-73
2022/09/27 03:23:02;;;;;;;;;0.00;0.00;;;;;15.34;74.07;66381.28;4997007;27;45487;-73
2022/09/27 03:25:27;;;;;;;;;0.33;0.33;;;;;15.26;74.09;66026.56;4997939;28;45944;-73
2022/09/27 03:27:53;;;;;;;;;0.33;0.33;;;;;15.34;74.28;65571.91;4996174;27;45744;-73
2022/09/27 03:30:18;;;;;;;;;0.33;0.00;;;;;15.33;74.49;65269.97;4997185;27;45380;-73
2022/09/27 03:32:44;;;;;;;;;0.67;0.00;;;;;15.32;74.76;64532.13;4979026;28;45472;-73
2022/09/27 03:35:10;;;;;;;;;0.33;0.33;;;;;15.33;74.90;64581.13;4997207;28;47215;-73
2022/09/27 03:37:36;;;;;;;;;0.00;0.00;;;;;15.34;75.44;63700.84;4980633;28;46088;-73
2022/09/27 03:40:02;;;;;;;;;0.00;0.00;;;;;15.20;74.90;63816.84;4988769;28;45329;-73
2022/09/27 03:42:28;;;;;;;;;2.33;1.00;;;;;15.29;75.08;63318.06;4995352;28;47022;-73
2022/09/27 03:44:53;;;;;;;;;1.33;0.33;;;;;15.29;75.06;63096.69;4997530;28;45575;-73
2022/09/27 03:47:18;;;;;;;;;1.33;0.00;;;;;15.30;75.27;62850.41;4995420;28;45345;-76
2022/09/27 03:49:44;;;;;;;;;0.00;0.00;;;;;15.29;75.59;62405.66;4997183;28;45719;-76
2022/09/27 03:52:09;;;;;;;;;2.00;0.67;;;;;15.29;75.30;62226.88;4996525;28;45460;-76
2022/09/27 03:54:34;;;;;;;;;1.00;0.00;;;;;15.28;75.28;61976.34;4975850;28;47598;-75
2022/09/27 03:57:00;;;;;;;;;1.67;0.33;;;;;15.27;74.64;62613.59;4993860;28;45294;-76
2022/09/27 03:59:25;;;;;;;;;1.00;1.00;;;;;15.25;74.50;62661.41;4996712;28;45235;-76
2022/09/27 04:01:50;;;;;;;;;1.00;1.00;;;;;15.17;74.42;62451.13;4997217;28;45892;-76
2022/09/27 04:04:16;;;;;;;;;2.33;1.00;;;;;15.10;74.44;62374.41;4999407;28;46289;-76
2022/09/27 04:06:41;;;;;;;;;0.00;0.00;;;;;15.02;74.81;62148.28;4981897;28;45320;-75
2022/09/27 04:09:07;;;;;;;;;0.67;0.00;;;;;15.13;74.68;61822.47;4976371;28;45316;-76
2022/09/27 04:11:32;;;;;;;;;0.00;0.00;;;;;15.14;74.94;61679.44;4994648;28;45547;-76
2022/09/27 04:13:58;;;;;;;;;0.00;0.00;;;;;15.15;74.42;61590.13;4992527;28;46189;-77
2022/09/27 04:16:24;;;;;;;;;3.00;0.33;;;;;15.13;74.57;61492.28;4994358;27;45401;-76
2022/09/27 04:18:49;;;;;;;;;1.00;1.00;;;;;15.10;74.65;61279.06;4986318;28;45362;-75
2022/09/27 04:21:15;;;;;;;;;0.33;0.33;;;;;15.13;74.98;60468.88;4994347;28;45448;-76
2022/09/27 04:23:40;;;;;;;;;0.00;0.00;;;;;15.09;74.86;61076.50;4993538;27;45658;-76
2022/09/27 04:26:05;;;;;;;;;1.00;1.00;;;;;15.09;74.80;60640.06;4994261;28;45437;-75
2022/09/27 04:28:31;;;;;;;;;0.00;0.00;;;;;15.10;74.57;60931.38;4993010;28;46500;-76
2022/09/27 04:30:57;;;;;;;;;0.00;0.00;;;;;15.09;75.04;60390.78;4992242;28;45405;-76
2022/09/27 04:33:22;;;;;;;;;1.33;0.33;;;;;15.06;74.52;60775.63;4989709;28;46552;-76
2022/09/27 04:38:32;;;;;;;;;1.33;0.00;;;;;14.89;74.38;60798.06;4992785;28;45503;-75
2022/09/27 04:41:00;;;;;;;;;0.67;0.67;;;;;14.99;74.49;60330.31;4990152;28;45602;-76
2022/09/27 04:43:25;;;;;;;;;0.00;0.00;;;;;14.98;74.65;60318.63;4993148;28;45543;-75
2022/09/27 04:45:50;;;;;;;;;1.00;1.00;;;;;15.08;74.25;60317.44;4992234;28;45420;-76
2022/09/27 04:48:16;;;;;;;;;1.67;0.00;;;;;15.04;74.56;60113.94;4989585;28;45488;-75
2022/09/27 04:50:41;;;;;;;;;0.00;0.00;;;;;15.12;74.44;60319.50;4973916;28;46676;-77
2022/09/27 04:53:12;;;;;;;;;0.33;0.33;;;;;15.13;74.53;60237.66;4991510;28;47174;-76
2022/09/27 04:55:38;;;;;;;;;0.00;0.00;;;;;15.16;75.02;59685.84;4976480;28;45405;-76
2022/09/27 04:58:03;;;;;;;;;1.00;1.00;;;;;15.18;74.83;59807.53;4989314;28;45544;-76
2022/09/27 05:00:29;;;;;;;;;0.00;0.00;;;;;15.20;74.77;59713.41;4991774;28;45456;-76
2022/09/27 05:02:54;;;;;;;;;1.00;1.00;;;;;15.23;74.64;59646.91;4988668;28;45514;-77
2022/09/27 05:05:20;;;;;;;;;0.00;0.00;;;;;15.16;75.15;59084.81;4993748;28;45488;-77
2022/09/27 05:07:45;;;;;;;;;1.67;0.67;;;;;15.22;75.59;58219.47;4987238;28;45489;-76
2022/09/27 05:10:10;;;;;;;;;0.00;0.00;;;;;15.26;75.46;57702.78;4988506;28;45507;-75
2022/09/27 05:12:36;;;;;;;;;0.00;0.00;;;;;15.28;75.67;57558.69;4991941;28;45503;-74
2022/09/27 05:15:02;;;;;;;;;1.67;0.00;;;;;15.28;75.92;57529.47;4985121;28;46283;-74
2022/09/27 05:17:27;;;;;;;;;2.67;1.00;;;;;15.29;75.87;57384.38;4979270;28;45556;-77
2022/09/27 05:19:52;;;;;;;;;0.67;0.67;;;;;15.25;76.08;57103.63;4973298;28;45607;-76
2022/09/27 05:22:18;;;;;;;;;1.67;0.00;;;;;15.22;75.51;57525.59;4988841;28;46103;-74
2022/09/27 05:24:44;;;;;;;;;2.33;0.33;;;;;15.22;75.37;57509.66;4999605;28;45478;-75
2022/09/27 05:27:17;;;;;;;;;1.00;1.00;;;;;15.09;75.92;56862.97;4987312;27;45588;-74
2022/09/27 05:29:43;;;;;;;;;0.67;0.67;;;;;15.15;75.68;57179.66;4991385;28;45445;-79
2022/09/27 05:32:08;;;;;;;;;1.00;0.67;;;;;15.13;75.40;57175.00;5002837;28;47370;-73
2022/09/27 05:34:33;;;;;;;;;0.00;0.00;;;;;15.09;75.65;57184.28;4980410;28;45671;-73
2022/09/27 05:36:59;;;;;;;;;2.67;1.67;;;;;15.10;75.43;56988.78;4970763;28;45611;-72
2022/09/27 05:39:24;;;;;;;;;3.00;2.33;;;;;15.07;75.80;56998.56;4981710;28;45818;-74
2022/09/27 05:41:49;;;;;;;;;1.00;1.00;;;;;15.05;75.98;56415.16;4969279;28;45383;-73
2022/09/27 05:44:16;;;;;;;;;1.33;1.33;;;;;15.03;76.00;56219.91;4989152;28;45463;-75
2022/09/27 05:46:43;;;;;;;;;0.33;0.00;;;;;15.04;75.92;56053.63;4984823;28;45478;-75
2022/09/27 05:49:08;;;;;;;;;2.00;1.00;;;;;15.02;76.07;55958.28;4986210;28;45577;-71
2022/09/27 05:51:33;;;;;;;;;1.00;1.00;;;;;14.70;75.85;55683.94;4986080;28;46026;-71
2022/09/27 05:53:59;;;;;;;;;0.00;0.00;;;;;15.02;76.17;55199.69;4991153;28;45448;-71
2022/09/27 05:56:24;;;;;;;;;0.67;0.67;;;;;15.04;76.19;55214.41;4978252;28;45454;-73
2022/09/27 05:58:50;;;;;;;;;7.50;4.50;;;;;14.99;76.16;55329.50;4994445;28;45290;-73
2022/09/27 06:01:17;;;;;;;;;3.00;3.00;;;;;15.02;76.01;55154.56;4994184;28;45518;-73
2022/09/27 06:03:42;;;;;;;;;2.67;1.00;;;;;14.99;76.10;55162.78;4994764;28;45277;-73
2022/09/27 06:06:09;;;;;;;;;1.00;1.00;;;;;15.12;76.06;55002.28;4994724;28;45325;-73
2022/09/27 06:08:37;;;;;;;;;2.00;2.00;;;;;15.10;76.02;55130.44;4995265;28;45500;-73
2022/09/27 06:11:08;;;;;;;;;0.00;0.00;;;;;15.10;76.32;54806.63;4993844;28;45495;-74
2022/09/27 06:13:40;;;;;;;;;1.00;1.00;;;;;15.13;76.03;54604.69;4994587;28;45302;-73
2022/09/27 06:16:09;;;;;;;;;19.67;18.67;;;;;15.16;76.56;54819.88;4994644;28;45266;-73
2022/09/27 06:18:35;;;;;;;;;2.00;2.00;;;;;15.08;76.30;54682.16;4994912;28;45347;-73
2022/09/27 06:21:02;;;;;;;;;5.67;5.67;;;;;15.08;75.86;54454.44;4994208;28;45440;-73
2022/09/27 06:23:27;;;;;;;;;3.00;3.00;;;;;15.12;76.25;54540.03;4977063;28;45348;-75
2022/09/27 06:25:53;;;;;;;;;1.33;1.33;;;;;15.18;75.98;54373.22;4994667;28;45374;-75
2022/09/27 06:28:20;;;;;;;;;2.00;0.67;;;;;15.24;75.78;54617.34;4993322;28;45468;-75
2022/09/27 06:30:47;;;;;;;;;0.67;0.67;;;;;15.25;76.19;54191.44;4992333;28;48064;-74
2022/09/27 06:33:18;;;;;;;;;1.67;0.67;;;;;15.30;75.75;54514.22;4982186;28;45631;-75
2022/09/27 06:35:45;;;;;;;;;2.67;1.33;;;;;15.31;75.56;54844.38;4981907;28;45418;-75
2022/09/27 06:38:14;;;;;;;;;0.67;0.67;;;;;15.29;75.57;54641.19;4971117;28;45285;-74
2022/09/27 06:40:44;;;;;;;;;1.33;0.00;;;;;15.32;76.33;54150.28;4984298;28;45490;-73
2022/09/27 06:43:10;;;;;;;;;0.67;0.67;;;;;15.33;75.59;54628.59;4992209;28;45380;-75
2022/09/27 06:45:37;;;;;;;;;0.33;0.00;;;;;15.34;75.56;54884.91;4994065;28;45358;-75
2022/09/27 06:48:04;;;;;;;;;0.33;0.33;;;;;15.37;75.43;54906.34;4976307;28;45609;-75
2022/09/27 06:50:32;;;;;;;;;0.67;0.67;;;;;15.36;75.24;54910.72;4993500;28;47316;-75
2022/09/27 06:52:57;;;;;;;;;0.33;0.33;;;;;15.36;75.43;55069.53;4976579;28;46213;-76
2022/09/27 06:55:23;;;;;;;;;0.67;0.67;;;;;15.29;75.64;54802.63;4994406;28;45491;-75
2022/09/27 07:00:32;;;;;;;;;6.00;3.67;;;;;15.48;75.49;56518.09;4993933;28;45735;-75
2022/09/27 07:03:01;;;;;;;;;2.33;1.67;;;;;15.49;75.08;55156.41;4976049;28;45378;-75
2022/09/27 07:05:30;;;;;;;;;1.67;1.67;;;;;15.39;74.73;55733.66;4994285;28;45370;-76
2022/09/27 07:07:56;;;;;;;;;2.00;1.67;;;;;15.52;74.74;55636.91;4994476;28;45367;-75
2022/09/27 07:10:27;;;;;;;;;1.00;1.00;;;;;15.44;74.88;55972.25;4992210;28;46063;-76
2022/09/27 07:12:52;;;;;;;;;1.33;0.33;;;;;15.50;74.27;56389.38;4992727;28;45309;-76
2022/09/27 07:15:22;;;;;;;;;0.67;0.67;;;;;15.53;74.42;56434.88;4993924;28;45301;-76
2022/09/27 07:17:56;;;;;;;;;0.00;0.00;;;;;15.59;74.59;56188.84;4994307;28;45365;-76
2022/09/27 07:20:22;;;;;;;;;1.33;1.00;;;;;15.70;74.77;56565.38;4993685;28;45478;-76
2022/09/27 07:22:48;;;;;;;;;1.33;0.33;;;;;15.68;73.98;56465.06;4976152;28;45557;-75
2022/09/27 07:25:13;;;;;;;;;1.00;1.00;;;;;15.62;74.07;56353.38;4994273;28;45425;-75
2022/09/27 07:27:40;;;;;;;;;0.67;0.67;;;;;15.77;74.45;56277.75;4994089;28;45572;-75
2022/09/27 07:30:07;;;;;;;;;1.33;0.67;;;;;15.85;73.91;56540.31;4976069;28;47286;-76
2022/09/27 07:32:35;;;;;;;;;0.00;0.00;;;;;15.81;73.61;56571.44;4993527;28;45260;-76
2022/09/27 07:35:05;;;;;;;;;0.67;0.67;;;;;15.85;73.67;56925.81;4993641;28;45436;-76
2022/09/27 07:37:32;;;;;;;;;0.00;0.00;;;;;15.85;73.75;56715.78;4992750;28;45521;-76
2022/09/27 07:39:58;;;;;;;;;0.00;0.00;;;;;15.94;73.33;57263.94;4993299;28;45303;-76
2022/09/27 07:42:23;;;;;;;;;0.33;0.33;;;;;15.94;73.44;57421.34;4993226;28;45256;-76
2022/09/27 07:44:48;;;;;;;;;0.33;0.33;;;;;15.98;73.65;57611.50;4979128;28;45300;-76
2022/09/27 07:47:14;;;;;;;;;1.33;1.33;;;;;16.09;73.42;57773.19;4996952;28;45353;-80
2022/09/27 07:49:39;;;;;;;;;0.67;0.67;;;;;16.05;72.54;58634.22;4978536;28;48283;-79
2022/09/27 07:52:04;;;;;;;;;0.00;0.00;;;;;16.08;72.79;58410.63;4996351;28;45532;-79
2022/09/27 07:54:30;;;;;;;;;2.00;2.00;;;;;16.19;73.07;58054.63;4996871;28;45418;-79
2022/09/27 07:56:55;;;;;;;;;1.33;0.67;;;;;16.24;72.57;58376.84;4997006;28;45429;-79
2022/09/27 07:59:21;;;;;;;;;1.00;1.00;;;;;16.35;72.33;58406.16;4978676;28;48447;-79
2022/09/27 08:01:46;;;;;;;;;2.00;2.00;;;;;16.42;72.14;59110.75;4995895;28;45350;-79
2022/09/27 08:04:11;;;;;;;;;2.33;1.00;;;;;16.38;72.26;58925.09;4996597;28;45783;-79
2022/09/27 08:06:36;;;;;;;;;0.00;0.00;;;;;16.45;71.81;58765.06;4996667;28;45522;-79
2022/09/27 08:09:05;;;;;;;;;1.00;1.00;;;;;16.51;71.62;59510.44;4996149;28;47361;-79
2022/09/27 08:11:31;;;;;;;;;0.00;0.00;;;;;16.44;71.81;59677.31;4996360;28;45492;-79
2022/09/27 08:13:56;;;;;;;;;2.00;0.00;;;;;16.46;71.89;59895.09;4978721;28;45447;-79
2022/09/27 08:16:21;;;;;;;;;1.33;0.67;;;;;16.50;70.82;59587.16;4996601;28;45473;-78
2022/09/27 08:18:47;;;;;;;;;2.00;1.00;;;;;16.51;70.47;60509.75;4996114;28;47192;-78
2022/09/27 08:21:12;;;;;;;;;0.33;0.00;;;;;16.59;70.88;60650.84;4996194;28;45397;-78
2022/09/27 08:23:38;;;;;;;;;0.00;0.00;;;;;16.64;70.35;60728.56;4996300;28;45375;-78
2022/09/27 08:26:03;;;;;;;;;1.00;1.00;;;;;16.76;70.45;61060.50;4996577;28;45492;-78
2022/09/27 08:28:30;;;;;;;;;3.00;1.00;;;;;16.77;70.13;61456.06;4996013;28;45659;-79
2022/09/27 08:30:58;;;;;;;;;2.00;1.00;;;;;16.86;70.38;60980.50;4995774;28;45594;-78
2022/09/27 08:33:24;;;;;;;;;1.00;1.00;;;;;17.02;69.68;61220.91;4996136;28;45377;-78
2022/09/27 08:35:50;;;;;;;;;1.00;1.00;;;;;17.02;69.38;59501.44;4978658;28;45358;-78
2022/09/27 08:38:15;;;;;;;;;0.00;0.00;;;;;17.03;69.37;60928.66;4995775;28;45746;-78
2022/09/27 08:40:53;;;;;;;;;17.33;15.33;;;;;17.04;69.40;60961.72;4995716;28;45231;-78
2022/09/27 08:43:24;;;;;;;;;12.00;11.67;;;;;17.04;69.06;60110.72;4996095;28;45346;-78
2022/09/27 08:45:57;;;;;;;;;0.00;0.00;;;;;17.03;69.32;61096.63;4996125;28;45387;-78
2022/09/27 08:48:26;;;;;;;;;3.00;2.00;;;;;16.97;70.61;62367.00;4995599;28;45553;-76
2022/09/27 08:50:53;;;;;;;;;0.00;0.00;;;;;16.92;70.57;61817.63;4995978;28;45363;-76
2022/09/27 08:53:23;;;;;;;;;1.67;0.00;;;;;16.87;71.19;62178.63;4995917;28;45290;-76
2022/09/27 08:55:53;;;;;;;;;2.00;1.00;;;;;16.87;70.95;61882.13;4995411;28;45367;-76
2022/09/27 08:58:28;;;;;;;;;0.00;0.00;;;;;16.82;71.71;61658.16;4977675;28;46262;-76
2022/09/27 09:01:01;;;;;;;;;0.00;0.00;;;;;16.81;70.66;60993.88;4995670;28;45430;-76
2022/09/27 09:03:30;;;;;;;;;1.00;0.00;;;;;16.71;71.04;61851.59;4995946;28;45234;-76
2022/09/27 09:06:22;;;;;;;;;1.33;0.33;;;;;16.77;71.41;61604.78;4995843;28;45365;-76
2022/09/27 09:09:20;;;;;;;;;0.67;0.00;;;;;16.76;71.95;61417.66;4995333;28;45367;-76
2022/09/27 09:14:35;;;;;;;;;0.33;0.33;;;;;16.80;72.20;60493.91;4995518;28;45465;-76
2022/09/27 09:17:14;;;;;;;;;1.00;1.00;;;;;16.81;72.35;59887.91;4995774;28;45413;-76
2022/09/27 09:19:55;;;;;;;;;1.33;0.00;;;;;16.75;72.47;59860.31;4995429;28;47250;-76
2022/09/27 09:22:47;;;;;;;;;2.00;1.33;;;;;16.83;72.28;60089.84;4995077;28;45291;-76
2022/09/27 09:25:21;;;;;;;;;0.00;0.00;;;;;16.87;70.74;59878.16;4977824;28;45454;-76
2022/09/27 09:28:01;;;;;;;;;1.00;1.00;;;;;17.04;71.47;60969.19;4977920;28;45443;-76
2022/09/27 09:30:41;;;;;;;;;0.00;0.00;;;;;17.51;71.45;60481.59;4995266;28;45390;-76
2022/09/27 09:33:28;;;;;;;;;0.00;0.00;;;;;18.04;69.95;59353.47;4995277;28;45544;-76
2022/09/27 09:36:00;;;;;;;;;0.00;0.00;;;;;18.65;68.88;56129.00;4995553;28;45477;-77
2022/09/27 09:38:40;;;;;;;;;1.00;1.00;;;;;19.14;66.90;21130.88;4995481;28;45492;-76
2022/09/27 09:41:20;;;;;;;;;1.00;1.00;;;;;19.88;64.82;-8054.88;4995004;28;46208;-76
2022/09/27 09:43:54;;;;;;;;;1.00;0.00;;;;;20.51;63.42;-19755.06;4994936;28;45395;-76
2022/09/27 09:46:27;;;;;;;;;0.00;0.00;;;;;21.16;60.67;-19771.88;4995454;28;45512;-76
2022/09/27 09:49:03;;;;;;;;;0.00;0.00;;;;;21.27;59.54;-19774.94;4995448;28;45301;-78
2022/09/27 09:51:38;;;;;;;;;0.33;0.33;;;;;21.06;59.12;-19769.34;4994990;28;46234;-78
2022/09/27 09:54:07;;;;;;;;;2.33;1.00;;;;;20.77;58.31;-19761.75;4995222;28;45333;-78
2022/09/27 09:56:39;;;;;;;;;1.67;0.67;;;;;20.54;59.19;-19755.75;4994907;28;45404;-78
2022/09/27 09:59:14;;;;;;;;;3.67;2.00;;;;;20.33;59.01;-19750.28;4995182;28;45297;-78
2022/09/27 10:01:43;;;;;;;;;8.00;7.00;;;;;20.07;57.98;-19743.63;4994746;28;47023;-78
2022/09/27 10:04:16;;;;;;;;;0.67;0.67;;;;;19.66;57.22;-19732.94;4994940;28;45420;-78
2022/09/27 10:06:41;;;;;;;;;1.00;1.00;;;;;19.39;58.11;-19726.00;4976025;28;45405;-78
2022/09/27 10:09:11;;;;;;;;;8.67;8.67;;;;;19.61;58.62;-19731.72;4977566;28;45507;-78
2022/09/27 10:11:41;;;;;;;;;0.67;0.67;;;;;19.64;57.50;-19732.41;4994443;28;46222;-78
2022/09/27 10:14:26;;;;;;;;;1.00;1.00;;;;;19.67;58.13;-19733.06;4994588;28;45404;-79
2022/09/27 10:16:58;;;;;;;;;0.67;0.00;;;;;19.88;55.88;-19738.53;4977676;28;45505;-78
2022/09/27 10:19:33;;;;;;;;;0.00;0.00;;;;;20.09;56.57;-19744.00;4995314;28;45517;-78
2022/09/27 10:22:15;;;;;;;;;0.00;0.00;;;;;20.09;55.10;-19744.00;4994579;28;45904;-78
2022/09/27 10:25:01;;;;;;;;;1.00;0.00;;;;;19.96;55.08;-19740.81;4994695;28;45401;-78
2022/09/27 10:27:36;;;;;;;;;0.00;0.00;;;;;19.84;54.38;-19737.47;4994863;28;45288;-79
2022/09/27 10:30:03;;;;;;;;;0.00;0.00;;;;;19.68;54.64;-19733.47;4995024;28;45421;-78
2022/09/27 10:32:35;;;;;;;;;0.00;0.00;;;;;19.54;54.40;-19729.72;4977017;28;45371;-80
2022/09/27 10:35:43;;;;;;;;;0.67;0.00;;;;;19.27;55.57;-19722.78;4994758;28;45184;-78
2022/09/27 10:38:15;;;;;;;;;1.33;0.00;;;;;19.21;56.43;-19721.06;5015067;28;45363;-78
2022/09/27 10:40:42;;;;;;;;;0.33;0.33;;;;;18.92;57.06;-19713.72;5014831;28;45434;-79
2022/09/27 10:43:28;;;;;;;;;2.00;1.00;;;;;18.95;58.07;-19714.38;5014834;28;46028;-78
2022/09/27 10:46:08;;;;;;;;;0.33;0.33;;;;;18.77;58.58;-19709.84;5014911;28;45449;-78
2022/09/27 10:48:33;;;;;;;;;0.00;0.00;;;;;18.59;59.50;-19704.88;5014730;28;45482;-78
2022/09/27 10:51:05;;;;;;;;;0.00;0.00;;;;;18.45;61.10;-19701.41;4998330;28;45543;-78
2022/09/27 10:53:32;;;;;;;;;1.67;0.00;;;;;18.43;61.91;-5236.34;5014790;28;46095;-78
2022/09/27 10:55:58;;;;;;;;;0.00;0.00;;;;;18.22;63.35;32087.53;5014283;28;45352;-78
2022/09/27 10:58:33;;;;;;;;;0.00;0.00;;;;;18.18;64.78;52214.88;5014598;28;45458;-78
2022/09/27 11:01:06;;;;;;;;;2.00;0.00;;;;;18.10;64.81;49256.81;4998230;28;45691;-78
2022/09/27 11:03:38;;;;;;;;;0.00;0.00;;;;;18.08;66.23;64863.06;5014164;28;47209;-78
2022/09/27 11:06:27;;;;;;;;;1.33;1.33;;;;;17.96;66.91;67885.00;5014496;28;45431;-78
2022/09/27 11:08:54;;;;;;;;;1.00;1.00;;;;;17.99;67.29;67481.94;5003979;28;45583;-78
2022/09/27 11:11:25;;;;;;;;;0.00;0.00;;;;;17.88;67.01;66167.50;4976689;28;45420;-78
2022/09/27 11:14:03;;;;;;;;;1.00;1.00;;;;;17.82;66.84;66141.94;4993706;28;46988;-78
2022/09/27 11:16:40;;;;;;;;;0.00;0.00;;;;;17.85;67.28;66319.13;4976206;28;46177;-79
2022/09/27 11:19:39;;;;;;;;;1.00;1.00;;;;;17.80;67.97;69454.97;4996531;28;45380;-78
2022/09/27 11:22:16;;;;;;;;;0.00;0.00;;;;;17.78;67.45;66922.69;4997403;28;45315;-78
2022/09/27 11:25:07;;;;;;;;;0.00;0.00;;;;;17.72;67.01;64623.94;4996567;28;46175;-78
2022/09/27 11:28:05;;;;;;;;;2.00;1.00;;;;;17.65;67.42;68162.00;4997000;28;45425;-78
2022/09/27 11:30:45;;;;;;;;;1.00;1.00;;;;;17.61;67.25;65185.97;4975912;28;45524;-78
2022/09/27 11:33:49;;;;;;;;;2.00;1.00;;;;;17.58;67.44;67589.72;4977608;28;45268;-78
2022/09/27 11:36:36;;;;;;;;;0.00;0.00;;;;;17.54;67.93;69400.34;4977269;28;46076;-78
2022/09/27 11:39:10;;;;;;;;;1.33;0.00;;;;;17.50;67.72;69426.13;4985828;28;45306;-78
2022/09/27 11:42:05;;;;;;;;;0.00;0.00;;;;;17.60;67.41;68343.28;4996886;28;45349;-78
2022/09/27 11:45:11;;;;;;;;;0.33;0.33;;;;;18.00;68.63;72230.34;5017743;28;45340;-79
2022/09/27 11:47:55;;;;;;;;;1.67;1.00;;;;;18.16;66.93;65443.69;4997482;28;46112;-79
2022/09/27 11:50:48;;;;;;;;;0.67;0.67;;;;;18.65;65.82;54258.31;4997402;28;45308;-78
2022/09/27 11:53:23;;;;;;;;;0.00;0.00;;;;;19.60;63.74;2941.91;4997281;28;45588;-78
2022/09/27 11:56:02;;;;;;;;;1.00;1.00;;;;;20.15;62.56;-19745.75;4997772;28;45510;-78
2022/09/27 11:58:28;;;;;;;;;0.33;0.00;;;;;20.63;60.19;-19758.28;4993714;28;46246;-78